sensor_id;sensor_type;location;lat;lon;timestamp;P1;durP1;ratioP1;P2;durP2;ratioP2
32786;SDS011;19139;49.372;8.580;2023-05-07T00:01:06;1.37;;;1.10;;
32786;SDS011;19139;49.372;8.580;2023-05-07T00:03:37;1.53;;;1.10;;
32786;SDS011;19139;49.372;8.580;2023-05-07T00:06:05;1.50;;;1.27;;
32786;SDS011;19139;49.372;8.580;2023-05-07T00:08:32;1.60;;;1.20;;
32786;SDS011;19139;49.372;8.580;2023-05-07T00:10:59;2.97;;;1.50;;
32786;SDS011;19139;49.372;8.580;2023-05-07T00:13:26;1.40;;;1.27;;
32786;SDS011;19139;49.372;8.580;2023-05-07T00:15:58;1.40;;;1.00;;
32786;SDS011;19139;49.372;8.580;2023-05-07T00:18:29;1.23;;;1.13;;
32786;SDS011;19139;49.372;8.580;2023-05-07T00:20:56;1.23;;;1.13;;
32786;SDS011;19139;49.372;8.580;2023-05-07T00:23:23;1.03;;;0.93;;
32786;SDS011;19139;49.372;8.580;2023-05-07T00:25:49;1.37;;;1.13;;
32786;SDS011;19139;49.372;8.580;2023-05-07T00:28:16;1.10;;;0.83;;
32786;SDS011;19139;49.372;8.580;2023-05-07T00:30:43;1.87;;;1.13;;
32786;SDS011;19139;49.372;8.580;2023-05-07T00:33:09;1.00;;;0.90;;
32786;SDS011;19139;49.372;8.580;2023-05-07T00:35:36;1.93;;;1.60;;
32786;SDS011;19139;49.372;8.580;2023-05-07T00:38:02;1.70;;;1.53;;
32786;SDS011;19139;49.372;8.580;2023-05-07T00:40:29;1.40;;;1.30;;
32786;SDS011;19139;49.372;8.580;2023-05-07T00:43:01;1.80;;;1.17;;
32786;SDS011;19139;49.372;8.580;2023-05-07T00:45:28;1.37;;;1.20;;
32786;SDS011;19139;49.372;8.580;2023-05-07T00:48:00;2.63;;;1.30;;
32786;SDS011;19139;49.372;8.580;2023-05-07T00:50:28;2.40;;;1.50;;
32786;SDS011;19139;49.372;8.580;2023-05-07T00:52:55;1.73;;;1.50;;
32786;SDS011;19139;49.372;8.580;2023-05-07T00:55:22;1.63;;;1.33;;
32786;SDS011;19139;49.372;8.580;2023-05-07T00:57:50;1.40;;;1.13;;
32786;SDS011;19139;49.372;8.580;2023-05-07T01:00:17;1.73;;;1.20;;
32786;SDS011;19139;49.372;8.580;2023-05-07T01:02:45;1.60;;;1.50;;
32786;SDS011;19139;49.372;8.580;2023-05-07T01:05:14;1.30;;;1.03;;
32786;SDS011;19139;49.372;8.580;2023-05-07T01:07:43;1.80;;;1.30;;
32786;SDS011;19139;49.372;8.580;2023-05-07T01:10:11;1.57;;;1.40;;
32786;SDS011;19139;49.372;8.580;2023-05-07T01:12:38;1.83;;;1.47;;
32786;SDS011;19139;49.372;8.580;2023-05-07T01:15:07;2.47;;;1.40;;
32786;SDS011;19139;49.372;8.580;2023-05-07T01:17:35;1.20;;;1.10;;
32786;SDS011;19139;49.372;8.580;2023-05-07T01:20:07;1.50;;;1.40;;
32786;SDS011;19139;49.372;8.580;2023-05-07T01:22:41;1.80;;;1.60;;
32786;SDS011;19139;49.372;8.580;2023-05-07T01:25:14;1.73;;;1.23;;
32786;SDS011;19139;49.372;8.580;2023-05-07T01:27:42;1.67;;;1.57;;
32786;SDS011;19139;49.372;8.580;2023-05-07T01:30:09;1.90;;;1.67;;
32786;SDS011;19139;49.372;8.580;2023-05-07T01:35:22;2.13;;;1.43;;
32786;SDS011;19139;49.372;8.580;2023-05-07T01:37:58;1.63;;;1.53;;
32786;SDS011;19139;49.372;8.580;2023-05-07T01:40:25;1.60;;;1.23;;
32786;SDS011;19139;49.372;8.580;2023-05-07T01:42:57;1.47;;;1.37;;
32786;SDS011;19139;49.372;8.580;2023-05-07T01:45:29;1.40;;;1.20;;
32786;SDS011;19139;49.372;8.580;2023-05-07T01:48:02;1.80;;;1.50;;
32786;SDS011;19139;49.372;8.580;2023-05-07T01:50:34;1.63;;;1.53;;
32786;SDS011;19139;49.372;8.580;2023-05-07T01:53:07;1.40;;;1.30;;
32786;SDS011;19139;49.372;8.580;2023-05-07T01:55:34;1.63;;;1.33;;
32786;SDS011;19139;49.372;8.580;2023-05-07T01:58:03;1.40;;;1.30;;
32786;SDS011;19139;49.372;8.580;2023-05-07T02:00:30;1.30;;;1.10;;
32786;SDS011;19139;49.372;8.580;2023-05-07T02:02:57;1.67;;;1.50;;
32786;SDS011;19139;49.372;8.580;2023-05-07T02:05:24;1.40;;;1.00;;
32786;SDS011;19139;49.372;8.580;2023-05-07T02:07:51;1.47;;;1.37;;
32786;SDS011;19139;49.372;8.580;2023-05-07T02:10:18;1.50;;;1.07;;
32786;SDS011;19139;49.372;8.580;2023-05-07T02:12:44;2.77;;;1.43;;
32786;SDS011;19139;49.372;8.580;2023-05-07T02:15:11;1.63;;;1.50;;
32786;SDS011;19139;49.372;8.580;2023-05-07T02:20:31;1.90;;;1.60;;
32786;SDS011;19139;49.372;8.580;2023-05-07T02:23:03;1.80;;;1.37;;
32786;SDS011;19139;49.372;8.580;2023-05-07T02:25:34;1.40;;;1.30;;
32786;SDS011;19139;49.372;8.580;2023-05-07T02:28:05;1.73;;;1.53;;
32786;SDS011;19139;49.372;8.580;2023-05-07T02:30:32;2.10;;;1.67;;
32786;SDS011;19139;49.372;8.580;2023-05-07T02:33:04;2.00;;;1.63;;
32786;SDS011;19139;49.372;8.580;2023-05-07T02:35:31;1.43;;;1.20;;
32786;SDS011;19139;49.372;8.580;2023-05-07T02:37:57;1.87;;;1.50;;
32786;SDS011;19139;49.372;8.580;2023-05-07T02:40:24;1.87;;;1.53;;
32786;SDS011;19139;49.372;8.580;2023-05-07T02:42:51;2.87;;;1.93;;
32786;SDS011;19139;49.372;8.580;2023-05-07T02:45:23;2.27;;;1.63;;
32786;SDS011;19139;49.372;8.580;2023-05-07T02:47:49;2.67;;;1.77;;
32786;SDS011;19139;49.372;8.580;2023-05-07T02:50:16;2.30;;;1.50;;
32786;SDS011;19139;49.372;8.580;2023-05-07T02:52:42;2.13;;;1.57;;
32786;SDS011;19139;49.372;8.580;2023-05-07T02:55:09;1.53;;;1.43;;
32786;SDS011;19139;49.372;8.580;2023-05-07T02:57:36;1.53;;;1.43;;
32786;SDS011;19139;49.372;8.580;2023-05-07T03:00:12;1.60;;;1.50;;
32786;SDS011;19139;49.372;8.580;2023-05-07T03:02:40;2.20;;;1.90;;
32786;SDS011;19139;49.372;8.580;2023-05-07T03:05:07;1.80;;;1.70;;
32786;SDS011;19139;49.372;8.580;2023-05-07T03:07:39;2.03;;;1.40;;
32786;SDS011;19139;49.372;8.580;2023-05-07T03:10:07;1.87;;;1.63;;
32786;SDS011;19139;49.372;8.580;2023-05-07T03:12:34;2.20;;;1.73;;
32786;SDS011;19139;49.372;8.580;2023-05-07T03:15:06;2.90;;;1.50;;
32786;SDS011;19139;49.372;8.580;2023-05-07T03:17:39;2.77;;;1.50;;
32786;SDS011;19139;49.372;8.580;2023-05-07T03:20:06;2.23;;;1.50;;
32786;SDS011;19139;49.372;8.580;2023-05-07T03:22:38;1.97;;;1.77;;
32786;SDS011;19139;49.372;8.580;2023-05-07T03:25:10;1.63;;;1.53;;
32786;SDS011;19139;49.372;8.580;2023-05-07T03:27:36;1.90;;;1.70;;
32786;SDS011;19139;49.372;8.580;2023-05-07T03:30:09;1.50;;;1.40;;
32786;SDS011;19139;49.372;8.580;2023-05-07T03:32:36;1.70;;;1.60;;
32786;SDS011;19139;49.372;8.580;2023-05-07T03:35:08;1.20;;;1.10;;
32786;SDS011;19139;49.372;8.580;2023-05-07T03:37:35;1.50;;;1.40;;
32786;SDS011;19139;49.372;8.580;2023-05-07T03:40:06;1.80;;;1.57;;
32786;SDS011;19139;49.372;8.580;2023-05-07T03:42:39;2.03;;;1.40;;
32786;SDS011;19139;49.372;8.580;2023-05-07T03:45:10;1.50;;;1.40;;
32786;SDS011;19139;49.372;8.580;2023-05-07T03:47:42;1.87;;;1.67;;
32786;SDS011;19139;49.372;8.580;2023-05-07T03:50:09;2.10;;;1.53;;
32786;SDS011;19139;49.372;8.580;2023-05-07T03:52:37;1.60;;;1.50;;
32786;SDS011;19139;49.372;8.580;2023-05-07T03:55:03;1.70;;;1.60;;
32786;SDS011;19139;49.372;8.580;2023-05-07T03:57:31;1.93;;;1.53;;
32786;SDS011;19139;49.372;8.580;2023-05-07T03:59:58;1.40;;;1.30;;
32786;SDS011;19139;49.372;8.580;2023-05-07T04:02:25;1.50;;;1.40;;
32786;SDS011;19139;49.372;8.580;2023-05-07T04:04:51;2.03;;;1.60;;
32786;SDS011;19139;49.372;8.580;2023-05-07T04:07:18;1.90;;;1.50;;
32786;SDS011;19139;49.372;8.580;2023-05-07T04:09:44;1.77;;;1.67;;
32786;SDS011;19139;49.372;8.580;2023-05-07T04:12:16;3.53;;;1.63;;
32786;SDS011;19139;49.372;8.580;2023-05-07T04:14:47;1.97;;;1.60;;
32786;SDS011;19139;49.372;8.580;2023-05-07T04:17:14;2.33;;;1.70;;
32786;SDS011;19139;49.372;8.580;2023-05-07T04:19:41;1.53;;;1.43;;
32786;SDS011;19139;49.372;8.580;2023-05-07T04:22:11;1.80;;;1.70;;
32786;SDS011;19139;49.372;8.580;2023-05-07T04:24:38;2.13;;;1.73;;
32786;SDS011;19139;49.372;8.580;2023-05-07T04:27:04;1.87;;;1.77;;
32786;SDS011;19139;49.372;8.580;2023-05-07T04:29:32;2.00;;;1.70;;
32786;SDS011;19139;49.372;8.580;2023-05-07T04:31:59;1.90;;;1.70;;
32786;SDS011;19139;49.372;8.580;2023-05-07T04:34:25;2.00;;;1.70;;
32786;SDS011;19139;49.372;8.580;2023-05-07T04:36:52;1.70;;;1.60;;
32786;SDS011;19139;49.372;8.580;2023-05-07T04:39:19;1.53;;;1.43;;
32786;SDS011;19139;49.372;8.580;2023-05-07T04:41:46;2.40;;;1.77;;
32786;SDS011;19139;49.372;8.580;2023-05-07T04:44:12;2.10;;;1.93;;
32786;SDS011;19139;49.372;8.580;2023-05-07T04:46:39;2.13;;;1.93;;
32786;SDS011;19139;49.372;8.580;2023-05-07T04:49:05;1.63;;;1.47;;
32786;SDS011;19139;49.372;8.580;2023-05-07T04:51:32;1.93;;;1.70;;
32786;SDS011;19139;49.372;8.580;2023-05-07T04:53:58;1.70;;;1.60;;
32786;SDS011;19139;49.372;8.580;2023-05-07T04:56:27;2.30;;;1.93;;
32786;SDS011;19139;49.372;8.580;2023-05-07T04:58:55;3.17;;;2.33;;
32786;SDS011;19139;49.372;8.580;2023-05-07T05:01:21;2.20;;;2.00;;
32786;SDS011;19139;49.372;8.580;2023-05-07T05:03:48;2.10;;;1.90;;
32786;SDS011;19139;49.372;8.580;2023-05-07T05:06:15;3.00;;;2.43;;
32786;SDS011;19139;49.372;8.580;2023-05-07T05:08:41;2.30;;;1.80;;
32786;SDS011;19139;49.372;8.580;2023-05-07T05:11:08;2.23;;;2.03;;
32786;SDS011;19139;49.372;8.580;2023-05-07T05:13:34;2.83;;;2.03;;
32786;SDS011;19139;49.372;8.580;2023-05-07T05:16:01;2.37;;;1.80;;
32786;SDS011;19139;49.372;8.580;2023-05-07T05:18:28;2.50;;;2.30;;
32786;SDS011;19139;49.372;8.580;2023-05-07T05:20:54;1.73;;;1.60;;
32786;SDS011;19139;49.372;8.580;2023-05-07T05:23:21;2.03;;;1.83;;
32786;SDS011;19139;49.372;8.580;2023-05-07T05:25:48;2.37;;;2.17;;
32786;SDS011;19139;49.372;8.580;2023-05-07T05:28:14;2.10;;;2.00;;
32786;SDS011;19139;49.372;8.580;2023-05-07T05:30:41;1.70;;;1.60;;
32786;SDS011;19139;49.372;8.580;2023-05-07T05:33:07;2.30;;;2.10;;
32786;SDS011;19139;49.372;8.580;2023-05-07T05:35:34;2.10;;;1.90;;
32786;SDS011;19139;49.372;8.580;2023-05-07T05:38:01;1.97;;;1.70;;
32786;SDS011;19139;49.372;8.580;2023-05-07T05:40:29;2.73;;;1.90;;
32786;SDS011;19139;49.372;8.580;2023-05-07T05:42:55;2.20;;;2.00;;
32786;SDS011;19139;49.372;8.580;2023-05-07T05:45:22;2.57;;;2.13;;
32786;SDS011;19139;49.372;8.580;2023-05-07T05:47:48;1.80;;;1.70;;
32786;SDS011;19139;49.372;8.580;2023-05-07T05:50:15;2.57;;;2.03;;
32786;SDS011;19139;49.372;8.580;2023-05-07T05:52:42;2.20;;;2.00;;
32786;SDS011;19139;49.372;8.580;2023-05-07T05:55:08;2.33;;;2.13;;
32786;SDS011;19139;49.372;8.580;2023-05-07T05:57:35;2.73;;;2.13;;
32786;SDS011;19139;49.372;8.580;2023-05-07T06:00:02;2.77;;;2.57;;
32786;SDS011;19139;49.372;8.580;2023-05-07T06:02:30;3.03;;;2.10;;
32786;SDS011;19139;49.372;8.580;2023-05-07T06:04:57;2.63;;;2.00;;
32786;SDS011;19139;49.372;8.580;2023-05-07T06:07:23;2.17;;;1.97;;
32786;SDS011;19139;49.372;8.580;2023-05-07T06:09:50;3.00;;;2.00;;
32786;SDS011;19139;49.372;8.580;2023-05-07T06:12:17;2.10;;;1.90;;
32786;SDS011;19139;49.372;8.580;2023-05-07T06:14:43;2.07;;;1.87;;
32786;SDS011;19139;49.372;8.580;2023-05-07T06:17:15;2.40;;;2.20;;
32786;SDS011;19139;49.372;8.580;2023-05-07T06:19:46;2.40;;;2.13;;
32786;SDS011;19139;49.372;8.580;2023-05-07T06:22:13;2.00;;;1.87;;
32786;SDS011;19139;49.372;8.580;2023-05-07T06:24:39;2.50;;;2.23;;
32786;SDS011;19139;49.372;8.580;2023-05-07T06:27:11;1.90;;;1.70;;
32786;SDS011;19139;49.372;8.580;2023-05-07T06:29:42;3.00;;;1.90;;
32786;SDS011;19139;49.372;8.580;2023-05-07T06:32:10;3.03;;;2.20;;
32786;SDS011;19139;49.372;8.580;2023-05-07T06:34:38;3.43;;;2.07;;
32786;SDS011;19139;49.372;8.580;2023-05-07T06:37:10;2.63;;;2.27;;
32786;SDS011;19139;49.372;8.580;2023-05-07T06:39:37;2.10;;;2.00;;
32786;SDS011;19139;49.372;8.580;2023-05-07T06:42:03;2.13;;;2.03;;
32786;SDS011;19139;49.372;8.580;2023-05-07T06:44:35;2.20;;;2.00;;
32786;SDS011;19139;49.372;8.580;2023-05-07T06:47:07;2.00;;;1.73;;
32786;SDS011;19139;49.372;8.580;2023-05-07T06:49:38;2.70;;;1.90;;
32786;SDS011;19139;49.372;8.580;2023-05-07T06:52:05;2.17;;;1.80;;
32786;SDS011;19139;49.372;8.580;2023-05-07T06:54:31;2.73;;;2.30;;
32786;SDS011;19139;49.372;8.580;2023-05-07T06:57:03;2.23;;;2.03;;
32786;SDS011;19139;49.372;8.580;2023-05-07T06:59:30;2.63;;;2.00;;
32786;SDS011;19139;49.372;8.580;2023-05-07T07:01:56;2.30;;;2.07;;
32786;SDS011;19139;49.372;8.580;2023-05-07T07:04:23;2.13;;;1.93;;
32786;SDS011;19139;49.372;8.580;2023-05-07T07:06:51;2.23;;;2.03;;
32786;SDS011;19139;49.372;8.580;2023-05-07T07:09:19;2.30;;;2.10;;
32786;SDS011;19139;49.372;8.580;2023-05-07T07:11:49;3.33;;;2.03;;
32786;SDS011;19139;49.372;8.580;2023-05-07T07:14:15;2.57;;;2.00;;
32786;SDS011;19139;49.372;8.580;2023-05-07T07:16:42;2.43;;;2.23;;
32786;SDS011;19139;49.372;8.580;2023-05-07T07:19:08;1.73;;;1.50;;
32786;SDS011;19139;49.372;8.580;2023-05-07T07:21:35;2.40;;;2.07;;
32786;SDS011;19139;49.372;8.580;2023-05-07T07:24:02;2.40;;;2.20;;
32786;SDS011;19139;49.372;8.580;2023-05-07T07:26:28;2.30;;;1.93;;
32786;SDS011;19139;49.372;8.580;2023-05-07T07:28:55;2.63;;;2.10;;
32786;SDS011;19139;49.372;8.580;2023-05-07T07:31:22;2.57;;;2.07;;
32786;SDS011;19139;49.372;8.580;2023-05-07T07:33:48;2.33;;;1.97;;
32786;SDS011;19139;49.372;8.580;2023-05-07T07:36:18;2.20;;;2.00;;
32786;SDS011;19139;49.372;8.580;2023-05-07T07:38:44;2.87;;;2.53;;
32786;SDS011;19139;49.372;8.580;2023-05-07T07:41:11;2.27;;;1.50;;
32786;SDS011;19139;49.372;8.580;2023-05-07T07:43:38;2.27;;;1.90;;
32786;SDS011;19139;49.372;8.580;2023-05-07T07:46:04;2.43;;;1.83;;
32786;SDS011;19139;49.372;8.580;2023-05-07T07:48:31;1.80;;;1.70;;
32786;SDS011;19139;49.372;8.580;2023-05-07T07:50:58;1.60;;;1.47;;
32786;SDS011;19139;49.372;8.580;2023-05-07T07:53:24;1.90;;;1.70;;
32786;SDS011;19139;49.372;8.580;2023-05-07T07:55:51;2.10;;;1.70;;
32786;SDS011;19139;49.372;8.580;2023-05-07T07:58:23;2.33;;;2.00;;
32786;SDS011;19139;49.372;8.580;2023-05-07T08:00:50;2.10;;;1.90;;
32786;SDS011;19139;49.372;8.580;2023-05-07T08:03:17;2.03;;;1.73;;
32786;SDS011;19139;49.372;8.580;2023-05-07T08:05:45;2.60;;;2.37;;
32786;SDS011;19139;49.372;8.580;2023-05-07T08:08:17;2.20;;;1.90;;
32786;SDS011;19139;49.372;8.580;2023-05-07T08:10:48;1.87;;;1.70;;
32786;SDS011;19139;49.372;8.580;2023-05-07T08:13:21;1.87;;;1.67;;
32786;SDS011;19139;49.372;8.580;2023-05-07T08:15:48;3.40;;;1.90;;
32786;SDS011;19139;49.372;8.580;2023-05-07T08:18:14;2.03;;;1.93;;
32786;SDS011;19139;49.372;8.580;2023-05-07T08:20:41;2.40;;;2.10;;
32786;SDS011;19139;49.372;8.580;2023-05-07T08:23:08;2.03;;;1.83;;
32786;SDS011;19139;49.372;8.580;2023-05-07T08:25:35;1.70;;;1.60;;
32786;SDS011;19139;49.372;8.580;2023-05-07T08:28:02;1.63;;;1.50;;
32786;SDS011;19139;49.372;8.580;2023-05-07T08:30:29;2.03;;;1.83;;
32786;SDS011;19139;49.372;8.580;2023-05-07T08:32:56;2.67;;;2.30;;
32786;SDS011;19139;49.372;8.580;2023-05-07T08:35:22;2.13;;;1.73;;
32786;SDS011;19139;49.372;8.580;2023-05-07T08:37:49;1.80;;;1.70;;
32786;SDS011;19139;49.372;8.580;2023-05-07T08:40:15;2.57;;;2.17;;
32786;SDS011;19139;49.372;8.580;2023-05-07T08:42:42;2.33;;;1.90;;
32786;SDS011;19139;49.372;8.580;2023-05-07T08:45:10;2.23;;;2.00;;
32786;SDS011;19139;49.372;8.580;2023-05-07T08:47:40;2.47;;;2.03;;
32786;SDS011;19139;49.372;8.580;2023-05-07T08:50:15;2.10;;;1.90;;
32786;SDS011;19139;49.372;8.580;2023-05-07T08:52:42;2.40;;;2.20;;
32786;SDS011;19139;49.372;8.580;2023-05-07T08:55:09;2.30;;;1.80;;
32786;SDS011;19139;49.372;8.580;2023-05-07T08:57:41;5.07;;;2.37;;
32786;SDS011;19139;49.372;8.580;2023-05-07T09:00:12;3.27;;;2.67;;
32786;SDS011;19139;49.372;8.580;2023-05-07T09:02:44;3.80;;;2.50;;
32786;SDS011;19139;49.372;8.580;2023-05-07T09:05:16;3.30;;;2.50;;
32786;SDS011;19139;49.372;8.580;2023-05-07T09:07:42;7.30;;;3.23;;
32786;SDS011;19139;49.372;8.580;2023-05-07T09:10:09;4.43;;;2.20;;
32786;SDS011;19139;49.372;8.580;2023-05-07T09:12:36;8.00;;;2.93;;
32786;SDS011;19139;49.372;8.580;2023-05-07T09:15:03;6.47;;;2.77;;
32786;SDS011;19139;49.372;8.580;2023-05-07T09:17:30;6.77;;;2.73;;
32786;SDS011;19139;49.372;8.580;2023-05-07T09:19:56;3.70;;;2.60;;
32786;SDS011;19139;49.372;8.580;2023-05-07T09:22:37;5.57;;;2.60;;
32786;SDS011;19139;49.372;8.580;2023-05-07T09:25:05;3.17;;;2.10;;
32786;SDS011;19139;49.372;8.580;2023-05-07T09:27:32;5.17;;;2.87;;
32786;SDS011;19139;49.372;8.580;2023-05-07T09:30:02;6.27;;;3.53;;
32786;SDS011;19139;49.372;8.580;2023-05-07T09:32:29;10.53;;;3.40;;
32786;SDS011;19139;49.372;8.580;2023-05-07T09:34:59;5.33;;;2.90;;
32786;SDS011;19139;49.372;8.580;2023-05-07T09:37:26;4.53;;;2.33;;
32786;SDS011;19139;49.372;8.580;2023-05-07T09:39:53;4.57;;;2.17;;
32786;SDS011;19139;49.372;8.580;2023-05-07T09:42:25;4.07;;;2.53;;
32786;SDS011;19139;49.372;8.580;2023-05-07T09:44:54;7.00;;;3.07;;
32786;SDS011;19139;49.372;8.580;2023-05-07T09:47:23;4.40;;;2.13;;
32786;SDS011;19139;49.372;8.580;2023-05-07T09:49:53;6.37;;;2.40;;
32786;SDS011;19139;49.372;8.580;2023-05-07T09:52:28;4.47;;;2.33;;
32786;SDS011;19139;49.372;8.580;2023-05-07T09:55:04;4.70;;;2.13;;
32786;SDS011;19139;49.372;8.580;2023-05-07T09:57:32;7.00;;;2.10;;
32786;SDS011;19139;49.372;8.580;2023-05-07T10:00:00;4.47;;;2.83;;
32786;SDS011;19139;49.372;8.580;2023-05-07T10:02:32;5.83;;;2.47;;
32786;SDS011;19139;49.372;8.580;2023-05-07T10:05:01;10.67;;;3.47;;
32786;SDS011;19139;49.372;8.580;2023-05-07T10:07:29;3.17;;;1.73;;
32786;SDS011;19139;49.372;8.580;2023-05-07T10:09:57;5.20;;;2.27;;
32786;SDS011;19139;49.372;8.580;2023-05-07T10:12:25;4.70;;;1.97;;
32786;SDS011;19139;49.372;8.580;2023-05-07T10:14:52;3.70;;;2.20;;
32786;SDS011;19139;49.372;8.580;2023-05-07T10:17:20;3.87;;;2.20;;
32786;SDS011;19139;49.372;8.580;2023-05-07T10:19:49;5.60;;;2.13;;
32786;SDS011;19139;49.372;8.580;2023-05-07T10:22:19;3.30;;;2.10;;
32786;SDS011;19139;49.372;8.580;2023-05-07T10:24:46;3.23;;;2.10;;
32786;SDS011;19139;49.372;8.580;2023-05-07T10:27:17;3.80;;;1.90;;
32786;SDS011;19139;49.372;8.580;2023-05-07T10:29:54;3.20;;;1.90;;
32786;SDS011;19139;49.372;8.580;2023-05-07T10:35:16;3.63;;;1.87;;
32786;SDS011;19139;49.372;8.580;2023-05-07T10:37:47;2.83;;;1.90;;
32786;SDS011;19139;49.372;8.580;2023-05-07T10:40:15;5.37;;;1.80;;
32786;SDS011;19139;49.372;8.580;2023-05-07T10:42:55;2.73;;;1.93;;
32786;SDS011;19139;49.372;8.580;2023-05-07T10:45:23;2.77;;;1.67;;
32786;SDS011;19139;49.372;8.580;2023-05-07T10:48:09;3.40;;;2.00;;
32786;SDS011;19139;49.372;8.580;2023-05-07T10:56:40;2.70;;;1.73;;
32786;SDS011;19139;49.372;8.580;2023-05-07T11:01:58;3.97;;;1.80;;
32786;SDS011;19139;49.372;8.580;2023-05-07T11:04:29;3.17;;;1.83;;
32786;SDS011;19139;49.372;8.580;2023-05-07T11:15:13;3.43;;;1.73;;
32786;SDS011;19139;49.372;8.580;2023-05-07T11:17:56;3.20;;;1.73;;
32786;SDS011;19139;49.372;8.580;2023-05-07T11:28:29;2.30;;;1.60;;
32786;SDS011;19139;49.372;8.580;2023-05-07T11:30:57;2.57;;;1.93;;
32786;SDS011;19139;49.372;8.580;2023-05-07T11:33:24;3.83;;;2.33;;
32786;SDS011;19139;49.372;8.580;2023-05-07T11:35:53;2.30;;;1.47;;
32786;SDS011;19139;49.372;8.580;2023-05-07T11:38:20;1.90;;;1.70;;
32786;SDS011;19139;49.372;8.580;2023-05-07T11:40:48;3.43;;;2.27;;
32786;SDS011;19139;49.372;8.580;2023-05-07T11:43:19;2.30;;;1.70;;
32786;SDS011;19139;49.372;8.580;2023-05-07T11:45:45;4.47;;;1.80;;
32786;SDS011;19139;49.372;8.580;2023-05-07T11:48:16;1.73;;;1.30;;
32786;SDS011;19139;49.372;8.580;2023-05-07T11:50:52;3.70;;;1.97;;
32786;SDS011;19139;49.372;8.580;2023-05-07T11:53:23;1.57;;;1.40;;
32786;SDS011;19139;49.372;8.580;2023-05-07T11:55:57;2.40;;;1.53;;
32786;SDS011;19139;49.372;8.580;2023-05-07T11:58:24;2.70;;;1.63;;
32786;SDS011;19139;49.372;8.580;2023-05-07T12:00:54;2.40;;;1.93;;
32786;SDS011;19139;49.372;8.580;2023-05-07T12:03:21;1.97;;;1.40;;
32786;SDS011;19139;49.372;8.580;2023-05-07T12:05:48;1.90;;;1.70;;
32786;SDS011;19139;49.372;8.580;2023-05-07T12:08:15;3.23;;;1.50;;
32786;SDS011;19139;49.372;8.580;2023-05-07T12:10:43;1.77;;;1.47;;
32786;SDS011;19139;49.372;8.580;2023-05-07T12:13:21;2.87;;;1.80;;
32786;SDS011;19139;49.372;8.580;2023-05-07T12:15:52;1.90;;;1.33;;
32786;SDS011;19139;49.372;8.580;2023-05-07T12:18:20;1.70;;;1.53;;
32786;SDS011;19139;49.372;8.580;2023-05-07T12:20:48;3.23;;;2.10;;
32786;SDS011;19139;49.372;8.580;2023-05-07T12:23:16;2.23;;;1.53;;
32786;SDS011;19139;49.372;8.580;2023-05-07T12:25:43;3.20;;;1.73;;
32786;SDS011;19139;49.372;8.580;2023-05-07T12:28:14;1.70;;;1.60;;
32786;SDS011;19139;49.372;8.580;2023-05-07T12:30:42;1.90;;;1.50;;
32786;SDS011;19139;49.372;8.580;2023-05-07T12:33:11;1.60;;;1.40;;
32786;SDS011;19139;49.372;8.580;2023-05-07T12:35:41;2.17;;;1.70;;
32786;SDS011;19139;49.372;8.580;2023-05-07T12:38:12;2.07;;;1.43;;
32786;SDS011;19139;49.372;8.580;2023-05-07T12:40:41;2.97;;;1.63;;
32786;SDS011;19139;49.372;8.580;2023-05-07T12:43:24;1.93;;;1.70;;
32786;SDS011;19139;49.372;8.580;2023-05-07T12:45:56;2.70;;;1.53;;
32786;SDS011;19139;49.372;8.580;2023-05-07T12:48:25;1.80;;;1.60;;
32786;SDS011;19139;49.372;8.580;2023-05-07T12:51:00;1.90;;;1.40;;
32786;SDS011;19139;49.372;8.580;2023-05-07T12:53:28;2.10;;;1.70;;
32786;SDS011;19139;49.372;8.580;2023-05-07T12:55:56;1.87;;;1.47;;
32786;SDS011;19139;49.372;8.580;2023-05-07T12:58:30;2.20;;;1.67;;
32786;SDS011;19139;49.372;8.580;2023-05-07T13:04:12;1.70;;;1.57;;
32786;SDS011;19139;49.372;8.580;2023-05-07T13:06:39;2.60;;;1.50;;
32786;SDS011;19139;49.372;8.580;2023-05-07T13:09:05;1.90;;;1.60;;
32786;SDS011;19139;49.372;8.580;2023-05-07T13:11:33;1.80;;;1.50;;
32786;SDS011;19139;49.372;8.580;2023-05-07T13:13:59;2.77;;;1.83;;
32786;SDS011;19139;49.372;8.580;2023-05-07T13:16:31;2.10;;;1.40;;
32786;SDS011;19139;49.372;8.580;2023-05-07T13:18:57;1.27;;;1.13;;
32786;SDS011;19139;49.372;8.580;2023-05-07T13:21:24;1.77;;;1.40;;
32786;SDS011;19139;49.372;8.580;2023-05-07T13:26:48;1.70;;;1.50;;
32786;SDS011;19139;49.372;8.580;2023-05-07T13:29:34;2.50;;;1.40;;
32786;SDS011;19139;49.372;8.580;2023-05-07T13:32:01;1.97;;;1.47;;
32786;SDS011;19139;49.372;8.580;2023-05-07T13:34:28;1.50;;;1.40;;
32786;SDS011;19139;49.372;8.580;2023-05-07T13:36:55;1.70;;;1.27;;
32786;SDS011;19139;49.372;8.580;2023-05-07T13:39:22;1.77;;;1.60;;
32786;SDS011;19139;49.372;8.580;2023-05-07T13:41:53;1.73;;;1.13;;
32786;SDS011;19139;49.372;8.580;2023-05-07T13:44:20;2.20;;;1.23;;
32786;SDS011;19139;49.372;8.580;2023-05-07T13:46:46;2.33;;;1.20;;
32786;SDS011;19139;49.372;8.580;2023-05-07T13:49:13;1.50;;;1.30;;
32786;SDS011;19139;49.372;8.580;2023-05-07T13:51:39;1.63;;;1.50;;
32786;SDS011;19139;49.372;8.580;2023-05-07T13:54:06;2.40;;;1.57;;
32786;SDS011;19139;49.372;8.580;2023-05-07T13:56:33;1.33;;;1.23;;
32786;SDS011;19139;49.372;8.580;2023-05-07T13:58:59;1.27;;;1.13;;
32786;SDS011;19139;49.372;8.580;2023-05-07T14:01:26;1.70;;;1.37;;
32786;SDS011;19139;49.372;8.580;2023-05-07T14:03:53;2.93;;;1.27;;
32786;SDS011;19139;49.372;8.580;2023-05-07T14:06:21;1.67;;;1.57;;
32786;SDS011;19139;49.372;8.580;2023-05-07T14:08:48;1.73;;;1.10;;
32786;SDS011;19139;49.372;8.580;2023-05-07T14:11:19;2.70;;;1.70;;
32786;SDS011;19139;49.372;8.580;2023-05-07T14:13:52;1.57;;;1.37;;
32786;SDS011;19139;49.372;8.580;2023-05-07T14:16:18;2.03;;;1.83;;
32786;SDS011;19139;49.372;8.580;2023-05-07T14:18:50;1.40;;;1.30;;
32786;SDS011;19139;49.372;8.580;2023-05-07T14:21:16;1.63;;;1.20;;
32786;SDS011;19139;49.372;8.580;2023-05-07T14:23:48;1.90;;;1.40;;
32786;SDS011;19139;49.372;8.580;2023-05-07T14:26:14;1.90;;;1.40;;
32786;SDS011;19139;49.372;8.580;2023-05-07T14:28:41;2.33;;;1.50;;
32786;SDS011;19139;49.372;8.580;2023-05-07T14:31:12;1.80;;;1.30;;
32786;SDS011;19139;49.372;8.580;2023-05-07T14:33:44;2.27;;;1.57;;
32786;SDS011;19139;49.372;8.580;2023-05-07T14:36:16;1.60;;;1.47;;
32786;SDS011;19139;49.372;8.580;2023-05-07T14:38:43;1.93;;;1.23;;
32786;SDS011;19139;49.372;8.580;2023-05-07T14:41:09;1.37;;;1.27;;
32786;SDS011;19139;49.372;8.580;2023-05-07T14:43:36;1.40;;;1.10;;
32786;SDS011;19139;49.372;8.580;2023-05-07T14:46:02;1.20;;;1.10;;
32786;SDS011;19139;49.372;8.580;2023-05-07T14:48:29;2.77;;;1.57;;
32786;SDS011;19139;49.372;8.580;2023-05-07T14:51:01;2.73;;;1.50;;
32786;SDS011;19139;49.372;8.580;2023-05-07T14:53:32;1.43;;;1.30;;
32786;SDS011;19139;49.372;8.580;2023-05-07T14:56:04;2.00;;;1.27;;
32786;SDS011;19139;49.372;8.580;2023-05-07T14:58:31;1.40;;;1.30;;
32786;SDS011;19139;49.372;8.580;2023-05-07T15:00:58;1.43;;;1.13;;
32786;SDS011;19139;49.372;8.580;2023-05-07T15:03:26;3.40;;;1.20;;
32786;SDS011;19139;49.372;8.580;2023-05-07T15:05:53;4.30;;;1.37;;
32786;SDS011;19139;49.372;8.580;2023-05-07T15:08:19;4.83;;;1.67;;
32786;SDS011;19139;49.372;8.580;2023-05-07T15:10:46;2.03;;;1.70;;
32786;SDS011;19139;49.372;8.580;2023-05-07T15:13:13;3.83;;;2.03;;
32786;SDS011;19139;49.372;8.580;2023-05-07T15:15:41;4.90;;;1.77;;
32786;SDS011;19139;49.372;8.580;2023-05-07T15:18:12;3.23;;;1.77;;
32786;SDS011;19139;49.372;8.580;2023-05-07T15:20:39;2.73;;;1.70;;
32786;SDS011;19139;49.372;8.580;2023-05-07T15:23:06;5.30;;;2.37;;
32786;SDS011;19139;49.372;8.580;2023-05-07T15:25:38;8.23;;;2.80;;
32786;SDS011;19139;49.372;8.580;2023-05-07T15:28:05;4.30;;;2.30;;
32786;SDS011;19139;49.372;8.580;2023-05-07T15:30:33;5.83;;;2.70;;
32786;SDS011;19139;49.372;8.580;2023-05-07T15:33:00;6.07;;;2.37;;
32786;SDS011;19139;49.372;8.580;2023-05-07T15:35:28;7.53;;;3.23;;